createdAt,value
2022-12-25T00:02:21.707Z,11.60
2022-12-25T00:04:48.738Z,11.50
2022-12-25T00:07:15.780Z,11.60
2022-12-25T00:09:42.955Z,11.50
2022-12-25T00:12:09.994Z,11.60
2022-12-25T00:14:36.934Z,11.60
2022-12-25T00:17:03.920Z,11.50
2022-12-25T00:19:31.033Z,11.50
2022-12-25T00:21:58.137Z,11.60
2022-12-25T00:24:25.047Z,11.20
2022-12-25T00:26:51.953Z,11.50
2022-12-25T00:29:18.880Z,11.70
2022-12-25T00:31:45.846Z,11.40
2022-12-25T00:34:13.013Z,11.40
2022-12-25T00:36:42.061Z,11.40
2022-12-25T00:39:09.405Z,11.60
2022-12-25T00:41:54.871Z,11.40
2022-12-25T00:44:21.818Z,11.20
2022-12-25T00:46:48.912Z,11.50
2022-12-25T00:49:15.800Z,11.30
2022-12-25T00:51:42.803Z,11.30
2022-12-25T00:54:09.803Z,11.30
2022-12-25T00:56:36.848Z,11.40
2022-12-25T00:59:03.822Z,11.40
2022-12-25T01:01:30.938Z,11.20
2022-12-25T01:03:58.112Z,11.50
2022-12-25T01:06:25.162Z,11.30
2022-12-25T01:09:10.863Z,11.50
2022-12-25T01:11:37.757Z,11.40
2022-12-25T01:14:04.719Z,11.40
2022-12-25T01:16:31.775Z,11.30
2022-12-25T01:18:58.742Z,11.40
2022-12-25T01:21:25.763Z,11.30
2022-12-25T01:23:52.884Z,11.40
2022-12-25T01:26:21.274Z,11.50
2022-12-25T01:28:49.074Z,11.30
2022-12-25T01:31:16.879Z,11.40
2022-12-25T01:33:43.988Z,11.40
2022-12-25T01:36:16.033Z,11.30
2022-12-25T01:38:43.478Z,11.30
2022-12-25T01:41:11.854Z,11.30
2022-12-25T01:43:57.147Z,11.30
2022-12-25T01:46:24.129Z,11.20
2022-12-25T01:48:51.158Z,11.20
2022-12-25T01:51:26.962Z,11.20
2022-12-25T01:53:53.860Z,11.10
2022-12-25T01:56:20.777Z,11.20
2022-12-25T01:58:47.654Z,11.20
2022-12-25T02:01:15.198Z,11.20
2022-12-25T02:03:43.667Z,11.10
2022-12-25T02:06:10.638Z,10.90
2022-12-25T02:08:37.607Z,11.20
2022-12-25T02:11:04.638Z,11.30
2022-12-25T02:13:31.585Z,11.20
2022-12-25T02:16:06.537Z,11.20
2022-12-25T02:19:08.937Z,11.30
2022-12-25T02:21:38.820Z,11.10
2022-12-25T02:24:24.360Z,10.80
2022-12-25T02:26:57.103Z,11.40
2022-12-25T02:29:41.175Z,11.30
2022-12-25T02:32:20.140Z,11.10
2022-12-25T02:35:01.531Z,11.20
2022-12-25T02:37:41.322Z,11.00
2022-12-25T02:40:16.438Z,11.30
2022-12-25T02:43:19.311Z,11.10
2022-12-25T02:46:11.365Z,11.30
2022-12-25T02:49:08.840Z,11.10
2022-12-25T02:51:55.880Z,11.20
2022-12-25T02:54:46.276Z,11.20
2022-12-25T02:57:32.561Z,11.10
2022-12-25T03:00:18.419Z,11.20
2022-12-25T03:03:03.886Z,11.30
2022-12-25T03:05:49.082Z,11.20
2022-12-25T03:08:27.757Z,11.40
2022-12-25T03:11:21.809Z,11.00
2022-12-25T03:13:51.310Z,11.30
2022-12-25T03:16:50.900Z,11.20
2022-12-25T03:19:36.688Z,11.40
2022-12-25T03:22:22.620Z,11.30
2022-12-25T03:25:09.169Z,11.20
2022-12-25T03:27:36.137Z,11.30
2022-12-25T03:30:22.212Z,11.20
2022-12-25T03:32:59.780Z,11.30
2022-12-25T03:35:49.550Z,11.20
2022-12-25T03:38:42.012Z,11.40
2022-12-25T03:41:42.855Z,11.30
2022-12-25T03:44:37.428Z,11.10
2022-12-25T03:47:33.670Z,11.00
2022-12-25T03:50:22.181Z,10.90
2022-12-25T03:53:07.568Z,11.00
2022-12-25T03:55:53.436Z,11.00
2022-12-25T03:58:39.825Z,11.10
2022-12-25T04:01:25.325Z,11.20
2022-12-25T04:04:11.077Z,11.30
2022-12-25T04:06:56.837Z,11.30
2022-12-25T04:09:42.250Z,11.20
2022-12-25T04:12:35.220Z,11.30
2022-12-25T04:15:20.407Z,11.20
2022-12-25T04:18:05.977Z,11.10
2022-12-25T04:20:51.544Z,11.20
2022-12-25T04:23:37.099Z,11.30
2022-12-25T04:26:22.609Z,11.30
2022-12-25T04:29:07.749Z,11.30
2022-12-25T04:31:53.014Z,11.40
2022-12-25T04:34:38.312Z,11.50
2022-12-25T04:37:05.234Z,11.50
2022-12-25T04:39:32.120Z,11.40
2022-12-25T04:41:59.474Z,11.30
2022-12-25T04:44:26.678Z,11.40
2022-12-25T04:46:53.625Z,11.40
2022-12-25T04:49:20.657Z,11.40
2022-12-25T04:51:47.654Z,11.00
2022-12-25T04:54:14.677Z,11.50
2022-12-25T04:56:45.608Z,11.40
2022-12-25T04:59:13.227Z,11.60
2022-12-25T05:01:40.247Z,11.60
2022-12-25T05:04:07.332Z,11.50
2022-12-25T05:06:34.233Z,11.40
2022-12-25T05:09:01.139Z,11.80
2022-12-25T05:11:28.110Z,11.40
2022-12-25T05:13:55.053Z,11.60
2022-12-25T05:16:22.195Z,11.60
2022-12-25T05:18:50.252Z,11.40
2022-12-25T05:21:17.441Z,11.30
2022-12-25T05:23:53.446Z,11.50
2022-12-25T05:26:24.677Z,11.10
2022-12-25T05:28:51.620Z,11.40
2022-12-25T05:31:19.244Z,11.30
2022-12-25T05:33:46.287Z,11.40
2022-12-25T05:36:13.224Z,11.40
2022-12-25T05:38:40.352Z,11.40
2022-12-25T05:41:07.280Z,11.50
2022-12-25T05:43:34.205Z,11.60
2022-12-25T05:46:06.482Z,11.60
2022-12-25T05:48:34.773Z,11.60
2022-12-25T05:51:12.435Z,11.40
2022-12-25T05:53:39.537Z,11.40
2022-12-25T05:56:07.291Z,11.30
2022-12-25T05:58:35.075Z,11.50
2022-12-25T06:01:02.191Z,11.40
2022-12-25T06:03:29.292Z,11.30
2022-12-25T06:05:56.264Z,11.40
2022-12-25T06:08:23.226Z,11.40
2022-12-25T06:10:50.531Z,11.50
2022-12-25T06:13:17.436Z,11.50
2022-12-25T06:15:44.359Z,11.30
2022-12-25T06:18:11.246Z,11.40
2022-12-25T06:20:40.756Z,11.50
2022-12-25T06:23:07.678Z,11.60
2022-12-25T06:25:34.591Z,11.40
2022-12-25T06:28:01.461Z,11.30
2022-12-25T06:30:28.353Z,11.40
2022-12-25T06:32:55.489Z,11.30
2022-12-25T06:35:22.396Z,11.40
2022-12-25T06:37:49.365Z,11.40
2022-12-25T06:40:16.599Z,11.50
2022-12-25T06:42:43.556Z,11.40
2022-12-25T06:45:10.827Z,11.50
2022-12-25T06:47:38.338Z,11.30
2022-12-25T06:50:06.356Z,11.30
2022-12-25T06:52:33.810Z,11.40
2022-12-25T06:55:00.825Z,11.40
2022-12-25T06:57:27.700Z,11.50
2022-12-25T06:59:55.531Z,11.30
2022-12-25T07:02:23.114Z,10.90
2022-12-25T07:04:50.115Z,11.40
2022-12-25T07:07:17.044Z,11.50
2022-12-25T07:09:44.066Z,11.40
2022-12-25T07:12:14.164Z,11.40
2022-12-25T07:14:41.155Z,11.40
2022-12-25T07:17:08.079Z,11.40
2022-12-25T07:19:39.661Z,11.40
2022-12-25T07:22:09.768Z,11.50
2022-12-25T07:24:36.753Z,11.50
2022-12-25T07:27:03.839Z,11.40
2022-12-25T07:29:30.750Z,11.50
2022-12-25T07:31:57.782Z,11.40
2022-12-25T07:34:24.807Z,11.30
2022-12-25T07:36:51.761Z,11.50
2022-12-25T07:39:18.662Z,11.50
2022-12-25T07:41:45.573Z,11.10
2022-12-25T07:44:15.700Z,11.60
2022-12-25T07:46:42.957Z,11.50
2022-12-25T07:49:11.187Z,11.60
2022-12-25T07:51:38.148Z,11.80
2022-12-25T07:54:05.124Z,11.70
2022-12-25T07:56:32.046Z,11.70
2022-12-25T07:58:58.955Z,11.60
2022-12-25T08:01:27.038Z,11.70
2022-12-25T08:03:58.803Z,11.60
2022-12-25T08:06:29.881Z,11.40
2022-12-25T08:09:03.786Z,11.60
2022-12-25T08:11:30.696Z,11.60
2022-12-25T08:13:57.612Z,11.50
2022-12-25T08:16:24.879Z,11.80
2022-12-25T08:18:51.902Z,11.60
2022-12-25T08:21:18.850Z,11.60
2022-12-25T08:23:49.871Z,11.60
2022-12-25T08:26:21.209Z,11.60
2022-12-25T08:28:48.481Z,11.80
2022-12-25T08:31:27.230Z,11.70
2022-12-25T08:36:37.113Z,11.70
2022-12-25T08:39:04.999Z,11.70
2022-12-25T08:41:32.295Z,11.60
2022-12-25T08:43:59.395Z,11.60
2022-12-25T08:46:26.427Z,11.60
2022-12-25T08:48:53.427Z,11.70
2022-12-25T08:51:21.570Z,11.50
2022-12-25T08:53:49.351Z,11.50
2022-12-25T08:56:16.463Z,11.40
2022-12-25T08:58:46.139Z,11.50
2022-12-25T09:01:13.595Z,11.40
2022-12-25T09:03:40.664Z,11.60
2022-12-25T09:06:09.239Z,11.60
2022-12-25T09:08:36.211Z,11.70
2022-12-25T09:11:04.198Z,11.60
2022-12-25T09:13:31.285Z,11.70
2022-12-25T09:15:58.323Z,11.70
2022-12-25T09:18:25.372Z,11.70
2022-12-25T09:21:03.010Z,11.70
2022-12-25T09:23:30.087Z,11.70
2022-12-25T09:25:59.795Z,11.70
2022-12-25T09:28:26.750Z,11.70
2022-12-25T09:30:53.796Z,11.70
2022-12-25T09:33:20.862Z,11.70
2022-12-25T09:35:58.239Z,11.70
2022-12-25T09:38:25.333Z,12.00
2022-12-25T09:41:20.132Z,11.80
2022-12-25T09:43:50.070Z,11.80
2022-12-25T09:46:22.045Z,11.80
2022-12-25T09:49:13.766Z,11.80
2022-12-25T09:51:40.687Z,11.80
2022-12-25T09:54:16.211Z,11.70
2022-12-25T09:56:43.166Z,11.50
2022-12-25T09:59:23.633Z,11.80
2022-12-25T10:02:15.534Z,11.80
2022-12-25T10:04:45.799Z,11.80
2022-12-25T10:07:41.257Z,11.80
2022-12-25T10:10:25.651Z,11.80
2022-12-25T10:13:11.648Z,11.90
2022-12-25T10:16:06.577Z,11.90
2022-12-25T10:18:55.261Z,11.90
2022-12-25T10:21:22.192Z,11.90
2022-12-25T10:24:06.660Z,11.90
2022-12-25T10:26:34.137Z,12.00
2022-12-25T10:29:16.701Z,12.00
2022-12-25T10:31:52.679Z,12.00
2022-12-25T10:34:20.058Z,12.00
2022-12-25T10:36:47.212Z,12.00
2022-12-25T10:39:22.439Z,12.00
2022-12-25T10:42:08.931Z,12.00
2022-12-25T10:44:36.031Z,12.10
2022-12-25T10:47:04.006Z,12.00
2022-12-25T10:49:38.573Z,12.00
2022-12-25T10:52:22.770Z,12.00
2022-12-25T10:54:49.888Z,12.00
2022-12-25T10:57:18.804Z,12.00
2022-12-25T10:59:55.983Z,12.00
2022-12-25T11:02:25.936Z,12.00
2022-12-25T11:05:04.563Z,12.00
2022-12-25T11:07:32.103Z,12.00
2022-12-25T11:10:06.080Z,12.10
2022-12-25T11:12:35.993Z,12.20
2022-12-25T11:15:30.805Z,12.20
2022-12-25T11:17:58.073Z,12.20
2022-12-25T11:20:25.162Z,12.20
2022-12-25T11:22:52.316Z,12.30
2022-12-25T11:25:24.391Z,12.30
2022-12-25T11:28:05.029Z,12.30
2022-12-25T11:30:32.847Z,12.40
2022-12-25T11:33:03.095Z,12.40
2022-12-25T11:35:31.933Z,12.50
2022-12-25T11:37:59.101Z,12.50
2022-12-25T11:40:41.934Z,12.60
2022-12-25T11:43:29.612Z,12.70
2022-12-25T11:46:26.948Z,12.70
2022-12-25T11:48:59.329Z,12.80
2022-12-25T11:51:28.920Z,12.80
2022-12-25T11:53:59.233Z,12.80
2022-12-25T11:56:28.191Z,12.90
2022-12-25T11:59:18.503Z,13.00
2022-12-25T12:01:48.811Z,13.00
2022-12-25T12:04:32.663Z,13.10
2022-12-25T12:07:08.838Z,12.90
2022-12-25T12:09:49.279Z,12.80
2022-12-25T12:12:35.278Z,12.80
2022-12-25T12:15:02.279Z,13.00
2022-12-25T12:17:29.416Z,13.10
2022-12-25T12:19:56.503Z,13.10
2022-12-25T12:22:25.507Z,13.30
2022-12-25T12:25:15.708Z,13.20
2022-12-25T12:27:43.649Z,13.20
2022-12-25T12:30:25.943Z,13.00
2022-12-25T12:32:54.195Z,13.00
2022-12-25T12:35:23.330Z,12.90
2022-12-25T12:38:24.244Z,12.80
2022-12-25T12:40:54.467Z,12.80
2022-12-25T12:43:28.990Z,12.70
2022-12-25T12:45:57.340Z,12.60
2022-12-25T12:48:26.512Z,12.60
2022-12-25T12:51:04.308Z,12.70
2022-12-25T12:53:32.615Z,12.70
2022-12-25T12:56:29.264Z,12.80
2022-12-25T12:58:56.343Z,12.80
2022-12-25T13:01:35.975Z,12.70
2022-12-25T13:04:15.112Z,12.70
2022-12-25T13:07:20.452Z,12.60
2022-12-25T13:09:56.836Z,12.50
2022-12-25T13:12:23.816Z,12.50
2022-12-25T13:14:51.013Z,12.50
2022-12-25T13:17:23.250Z,12.50
2022-12-25T13:19:55.290Z,12.50
2022-12-25T13:22:24.670Z,12.40
2022-12-25T13:24:56.896Z,12.50
2022-12-25T13:27:33.813Z,12.50
2022-12-25T13:30:11.162Z,12.50
2022-12-25T13:32:38.278Z,12.50
2022-12-25T13:35:05.504Z,12.50
2022-12-25T13:37:32.586Z,12.50
2022-12-25T13:40:05.374Z,12.60
2022-12-25T13:42:33.828Z,12.50
2022-12-25T13:45:08.130Z,12.60
2022-12-25T13:47:37.158Z,12.60
2022-12-25T13:50:36.565Z,12.60
2022-12-25T13:53:15.788Z,12.50
2022-12-25T13:55:43.049Z,12.50
2022-12-25T13:58:18.590Z,12.50
2022-12-25T14:00:53.293Z,12.50
2022-12-25T14:03:24.772Z,12.50
2022-12-25T14:05:59.215Z,12.50
2022-12-25T14:08:28.089Z,12.50
2022-12-25T14:10:55.185Z,12.40
2022-12-25T14:13:25.594Z,12.40
2022-12-25T14:15:53.659Z,12.20
2022-12-25T14:18:21.768Z,12.40
2022-12-25T14:21:17.322Z,12.40
2022-12-25T14:23:48.231Z,12.30
2022-12-25T14:26:25.274Z,12.30
2022-12-25T14:29:05.208Z,12.30
2022-12-25T14:31:32.207Z,12.30
2022-12-25T14:34:00.089Z,12.30
2022-12-25T14:36:27.272Z,12.30
2022-12-25T14:39:02.739Z,12.30
2022-12-25T14:41:38.170Z,12.30
2022-12-25T14:44:32.015Z,12.30
2022-12-25T14:47:11.043Z,12.30
2022-12-25T14:49:38.494Z,12.30
2022-12-25T14:52:29.931Z,12.30
2022-12-25T14:55:02.039Z,12.20
2022-12-25T14:57:34.363Z,12.20
2022-12-25T15:00:22.867Z,12.20
2022-12-25T15:02:50.470Z,12.20
2022-12-25T15:05:39.014Z,12.10
2022-12-25T15:08:08.674Z,12.10
2022-12-25T15:13:23.175Z,12.10
2022-12-25T15:15:56.092Z,12.00
2022-12-25T15:18:23.890Z,12.00
2022-12-25T15:20:53.454Z,12.20
2022-12-25T15:23:21.058Z,12.10
2022-12-25T15:25:48.432Z,12.00
2022-12-25T15:28:15.964Z,12.00
2022-12-25T15:30:43.038Z,11.90
2022-12-25T15:33:19.605Z,11.90
2022-12-25T15:35:46.572Z,11.90
2022-12-25T15:38:13.747Z,11.90
2022-12-25T15:40:41.058Z,11.90
2022-12-25T15:43:14.445Z,11.90
2022-12-25T15:45:49.646Z,11.70
2022-12-25T15:48:16.720Z,11.70
2022-12-25T15:50:44.452Z,11.70
2022-12-25T15:53:11.499Z,11.60
2022-12-25T15:55:38.991Z,11.60
2022-12-25T15:58:05.934Z,11.60
2022-12-25T16:00:33.016Z,11.60
2022-12-25T16:03:00.253Z,11.50
2022-12-25T16:05:27.436Z,11.50
2022-12-25T16:07:54.542Z,11.40
2022-12-25T16:10:22.676Z,11.60
2022-12-25T16:12:49.642Z,11.40
2022-12-25T16:15:16.714Z,11.20
2022-12-25T16:17:43.687Z,11.20
2022-12-25T16:20:10.960Z,11.30
2022-12-25T16:22:40.702Z,11.00
2022-12-25T16:25:14.257Z,11.30
2022-12-25T16:27:41.291Z,11.20
2022-12-25T16:30:08.822Z,11.30
2022-12-25T16:32:35.897Z,11.20
2022-12-25T16:35:02.998Z,11.20
2022-12-25T16:37:30.361Z,11.30
2022-12-25T16:39:57.252Z,11.10
2022-12-25T16:42:24.248Z,11.10
2022-12-25T16:44:51.194Z,11.30
2022-12-25T16:47:18.183Z,11.30
2022-12-25T16:49:45.151Z,11.10
2022-12-25T16:52:12.123Z,11.40
2022-12-25T16:54:39.018Z,11.10
2022-12-25T16:57:06.050Z,11.40
2022-12-25T16:59:33.300Z,11.00
2022-12-25T17:02:00.702Z,11.10
2022-12-25T17:04:28.246Z,11.00
2022-12-25T17:06:55.299Z,11.20
2022-12-25T17:09:22.258Z,11.10
2022-12-25T17:11:49.202Z,11.10
2022-12-25T17:14:16.244Z,11.10
2022-12-25T17:16:43.451Z,11.40
2022-12-25T17:19:19.307Z,11.10
2022-12-25T17:21:46.396Z,11.10
2022-12-25T17:24:13.728Z,11.30
2022-12-25T17:26:41.656Z,11.10
2022-12-25T17:29:08.741Z,10.90
2022-12-25T17:31:35.895Z,11.10
2022-12-25T17:34:03.083Z,11.10
2022-12-25T17:36:30.261Z,10.90
2022-12-25T17:38:59.776Z,11.20
2022-12-25T17:41:26.854Z,11.20
2022-12-25T17:43:54.049Z,11.00
2022-12-25T17:46:24.813Z,11.20
2022-12-25T17:48:52.494Z,11.20
2022-12-25T17:51:21.462Z,11.20
2022-12-25T17:53:53.558Z,11.20
2022-12-25T17:56:21.890Z,11.10
2022-12-25T17:58:53.420Z,11.10
2022-12-25T18:01:21.324Z,11.10
2022-12-25T18:03:48.840Z,11.00
2022-12-25T18:06:17.536Z,11.20
2022-12-25T18:08:45.088Z,11.00
2022-12-25T18:11:15.439Z,11.00
2022-12-25T18:13:44.835Z,11.20
2022-12-25T18:16:15.106Z,11.20
2022-12-25T18:18:47.863Z,11.10
2022-12-25T18:21:18.436Z,11.00
2022-12-25T18:23:46.556Z,11.00
2022-12-25T18:26:13.945Z,11.00
2022-12-25T18:28:42.826Z,11.00
2022-12-25T18:31:11.149Z,10.80
2022-12-25T18:33:38.492Z,11.20
2022-12-25T18:36:06.143Z,10.90
2022-12-25T18:38:33.164Z,11.10
2022-12-25T18:41:00.177Z,11.00
2022-12-25T18:43:53.122Z,10.90
2022-12-25T18:46:15.482Z,11.00
2022-12-25T18:48:42.594Z,11.00
2022-12-25T18:51:12.166Z,11.00
2022-12-25T18:53:41.128Z,10.90
2022-12-25T18:56:10.036Z,10.80
2022-12-25T18:58:38.308Z,10.80
2022-12-25T19:01:13.153Z,10.80
2022-12-25T19:03:40.357Z,10.90
2022-12-25T19:06:07.510Z,10.80
2022-12-25T19:08:34.587Z,10.90
2022-12-25T19:11:06.669Z,11.00
2022-12-25T19:13:33.662Z,11.10
2022-12-25T19:16:01.049Z,10.90
2022-12-25T19:18:28.077Z,10.70
2022-12-25T19:20:55.064Z,10.80
2022-12-25T19:23:22.103Z,10.80
2022-12-25T19:25:49.951Z,10.70
2022-12-25T19:28:17.854Z,10.80
2022-12-25T19:30:44.895Z,10.80
2022-12-25T19:33:17.544Z,10.80
2022-12-25T19:35:45.087Z,10.80
2022-12-25T19:38:12.568Z,10.80
2022-12-25T19:40:40.283Z,10.70
2022-12-25T19:43:07.733Z,10.80
2022-12-25T19:45:34.690Z,11.00
2022-12-25T19:48:01.628Z,10.90
2022-12-25T19:50:32.249Z,10.90
2022-12-25T19:52:59.286Z,11.00
2022-12-25T19:55:26.472Z,10.60
2022-12-25T19:57:55.373Z,10.60
2022-12-25T20:00:22.571Z,10.80
2022-12-25T20:02:59.610Z,10.50
2022-12-25T20:05:29.624Z,10.50
2022-12-25T20:08:01.018Z,10.40
2022-12-25T20:10:28.196Z,10.50
2022-12-25T20:12:55.302Z,10.60
2022-12-25T20:15:22.321Z,10.50
2022-12-25T20:17:49.299Z,10.60
2022-12-25T20:20:16.264Z,10.60
2022-12-25T20:22:43.281Z,10.80
2022-12-25T20:25:11.164Z,10.70
2022-12-25T20:27:38.106Z,10.70
2022-12-25T20:30:05.583Z,10.60
2022-12-25T20:32:32.693Z,10.40
2022-12-25T20:34:59.732Z,10.60
2022-12-25T20:37:26.761Z,10.70
2022-12-25T20:39:53.850Z,10.50
2022-12-25T20:42:20.975Z,10.60
2022-12-25T20:44:48.251Z,10.60
2022-12-25T20:47:15.231Z,10.60
2022-12-25T20:49:42.164Z,10.60
2022-12-25T20:52:09.189Z,10.80
2022-12-25T20:54:36.298Z,10.60
2022-12-25T20:57:03.671Z,10.70
2022-12-25T20:59:37.190Z,10.60
2022-12-25T21:02:04.966Z,10.60
2022-12-25T21:04:32.179Z,10.60
2022-12-25T21:07:00.461Z,10.60
2022-12-25T21:09:27.475Z,10.60
2022-12-25T21:11:54.517Z,10.60
2022-12-25T21:14:21.473Z,10.60
2022-12-25T21:16:50.197Z,10.90
2022-12-25T21:19:17.200Z,10.60
2022-12-25T21:21:44.471Z,10.60
2022-12-25T21:24:11.985Z,10.60
2022-12-25T21:26:43.030Z,10.80
2022-12-25T21:29:13.379Z,10.50
2022-12-25T21:31:58.720Z,10.60
2022-12-25T21:34:26.022Z,10.60
2022-12-25T21:36:53.947Z,10.60
2022-12-25T21:39:21.169Z,10.50
2022-12-25T21:41:48.193Z,10.50
2022-12-25T21:44:15.324Z,10.60
2022-12-25T21:46:42.585Z,10.60
2022-12-25T21:49:09.868Z,10.70
2022-12-25T21:51:55.437Z,10.40
2022-12-25T21:54:23.212Z,10.70
2022-12-25T21:56:50.588Z,10.80
2022-12-25T21:59:19.533Z,10.70
2022-12-25T22:01:47.008Z,10.50
2022-12-25T22:04:15.359Z,10.60
2022-12-25T22:07:01.009Z,10.60
2022-12-25T22:09:28.023Z,10.60
2022-12-25T22:12:13.859Z,10.80
2022-12-25T22:15:02.533Z,10.70
2022-12-25T22:17:49.486Z,10.60
2022-12-25T22:20:37.619Z,10.60
2022-12-25T22:23:04.891Z,10.70
2022-12-25T22:25:31.850Z,10.80
2022-12-25T22:27:58.835Z,10.60
2022-12-25T22:30:28.166Z,10.50
2022-12-25T22:32:55.227Z,10.50
2022-12-25T22:35:22.281Z,10.50
2022-12-25T22:37:49.900Z,10.50
2022-12-25T22:40:17.850Z,10.40
2022-12-25T22:42:44.942Z,10.60
2022-12-25T22:45:12.106Z,10.70
2022-12-25T22:47:39.338Z,10.60
2022-12-25T22:50:06.734Z,10.60
2022-12-25T22:52:33.811Z,10.50
2022-12-25T22:55:00.873Z,10.60
2022-12-25T22:57:27.958Z,10.50
2022-12-25T22:59:54.985Z,10.50
2022-12-25T23:02:22.264Z,10.60
2022-12-25T23:04:49.413Z,10.70
2022-12-25T23:07:16.448Z,10.50
2022-12-25T23:09:44.230Z,10.40
2022-12-25T23:12:30.061Z,10.60
2022-12-25T23:14:57.116Z,10.40
2022-12-25T23:17:42.353Z,10.60
2022-12-25T23:20:28.233Z,10.60
2022-12-25T23:23:13.446Z,10.60
2022-12-25T23:25:58.687Z,10.50
2022-12-25T23:28:44.242Z,10.60
2022-12-25T23:31:11.274Z,10.50
2022-12-25T23:33:38.227Z,10.50
2022-12-25T23:36:05.587Z,10.60
2022-12-25T23:38:32.520Z,10.40
2022-12-25T23:40:59.525Z,10.40
2022-12-25T23:43:26.527Z,10.40
2022-12-25T23:45:53.517Z,10.50
2022-12-25T23:48:20.435Z,10.80
2022-12-25T23:50:47.331Z,10.50
2022-12-25T23:53:14.331Z,10.40
2022-12-25T23:55:42.781Z,10.60
2022-12-25T23:58:09.950Z,10.40
